Time;durP1;ratioP1;P1;durP2;ratioP2;P2;SDS_P1;SDS_P2;PMS_P1;PMS_P2;Temp;Humidity;BMP_temperature;BMP_pressure;BME280_temperature;BME280_humidity;BME280_pressure;Samples;Min_cycle;Max_cycle;Signal;HPM_P1;HPM_P2
2021/12/02 00:01:13;;;;;;;15.75;11.07;;;;;;;12.96;71.25;100479.75;4830960;29;102689;-92
2021/12/02 00:03:41;;;;;;;16.48;10.40;;;;;;;12.96;71.12;100479.75;4844059;29;102158;-91
2021/12/02 00:06:11;;;;;;;14.75;11.18;;;;;;;12.96;71.11;100482.47;4845618;29;102174;-86
2021/12/02 00:08:39;;;;;;;14.75;11.02;;;;;;;12.95;71.17;100486.31;4837339;29;102008;-91
2021/12/02 00:11:06;;;;;;;15.52;10.98;;;;;;;12.95;71.16;100476.19;4837621;29;102993;-91
2021/12/02 00:14:09;;;;;;;15.18;11.10;;;;;;;12.95;71.06;100459.00;4846834;29;102293;-91
2021/12/02 00:17:34;;;;;;;20.42;11.63;;;;;;;12.96;71.26;100457.88;4838948;29;102314;-92
2021/12/02 00:22:12;;;;;;;15.68;11.52;;;;;;;12.96;71.09;100446.97;4846502;29;106595;-91
2021/12/02 00:24:39;;;;;;;;;;;;;;;12.96;71.21;100457.88;4850411;29;102205;-91
2021/12/02 00:27:07;;;;;;;15.65;10.68;;;;;;;12.96;71.24;100455.16;4845323;29;102050;-91
2021/12/02 00:29:36;;;;;;;14.43;10.53;;;;;;;12.96;71.22;100446.97;4825453;29;102183;-90
2021/12/02 00:32:05;;;;;;;13.52;10.60;;;;;;;12.95;71.17;100439.88;4847075;29;102711;-91
2021/12/02 00:34:32;;;;;;;14.95;11.60;;;;;;;12.93;71.10;100437.44;4860809;29;102097;-91
2021/12/02 00:37:00;;;;;;;15.77;10.85;;;;;;;12.95;71.17;100431.69;4841703;29;102106;-91
2021/12/02 00:39:29;;;;;;;14.57;11.00;;;;;;;12.94;71.54;100433.59;4840389;29;102078;-91
2021/12/02 00:41:56;;;;;;;15.85;10.40;;;;;;;12.95;71.06;100428.97;4843249;29;102445;-90
2021/12/02 00:44:22;;;;;;;14.77;11.02;;;;;;;12.95;71.20;100423.50;4843040;29;102262;-90
2021/12/02 00:46:50;;;;;;;16.88;11.35;;;;;;;12.95;71.25;100412.56;4842575;29;102068;-90
2021/12/02 00:49:18;;;;;;;15.20;11.40;;;;;;;12.94;71.21;100422.66;4825903;29;102085;-91
2021/12/02 00:51:51;;;;;;;12.80;9.97;;;;;;;12.94;71.15;100428.13;4836835;29;102807;-90
2021/12/02 00:54:18;;;;;;;14.82;10.23;;;;;;;12.93;71.05;100420.22;4843892;29;102046;-90
2021/12/02 00:56:47;;;;;;;13.85;9.98;;;;;;;12.93;71.14;100418.31;4855048;29;102040;-87
2021/12/02 00:59:14;;;;;;;14.32;10.80;;;;;;;12.94;71.03;100427.31;4870049;29;102118;-87
2021/12/02 01:01:40;;;;;;;16.05;10.98;;;;;;;12.94;71.10;100427.31;4868284;29;102708;-88
2021/12/02 01:04:08;;;;;;;14.98;10.70;;;;;;;12.94;71.16;100427.31;4869497;29;101619;-89
2021/12/02 01:06:35;;;;;;;11.88;9.00;;;;;;;12.93;71.11;100420.22;4859084;29;101994;-92
2021/12/02 01:09:02;;;;;;;13.98;10.40;;;;;;;12.92;71.18;100410.41;4847925;29;102362;-90
2021/12/02 01:11:28;;;;;;;13.82;10.18;;;;;;;12.93;71.15;100412.03;4866908;29;102941;-90
2021/12/02 01:13:56;;;;;;;13.68;10.50;;;;;;;12.92;71.12;100396.75;4839480;29;102028;-87
2021/12/02 01:16:23;;;;;;;15.63;10.57;;;;;;;12.91;71.17;100400.56;4849397;29;101833;-90
2021/12/02 01:18:50;;;;;;;14.35;10.38;;;;;;;12.92;71.10;100396.75;4859068;29;102279;-91
2021/12/02 01:21:19;;;;;;;15.48;10.10;;;;;;;12.91;71.09;100395.13;4853969;29;102769;-89
2021/12/02 01:23:50;;;;;;;13.57;10.00;;;;;;;12.92;70.97;100396.75;4835562;29;102027;-90
2021/12/02 01:26:18;;;;;;;14.15;10.00;;;;;;;12.91;70.98;100387.75;4842336;29;102208;-88
2021/12/02 01:28:45;;;;;;;13.50;9.95;;;;;;;12.91;71.04;100390.50;4850759;29;102044;-88
2021/12/02 01:31:13;;;;;;;14.23;10.90;;;;;;;12.90;71.25;100383.38;4849393;29;102481;-88
2021/12/02 01:33:42;;;;;;;12.25;9.98;;;;;;;12.91;71.15;100384.19;4850023;29;102114;-88
2021/12/02 01:36:10;;;;;;;13.85;10.27;;;;;;;12.91;70.79;100395.13;4849177;29;102104;-88
2021/12/02 01:38:36;;;;;;;15.55;10.43;;;;;;;12.91;71.13;100395.13;4833386;29;102129;-88
2021/12/02 01:41:04;;;;;;;15.55;10.98;;;;;;;12.91;71.04;100392.38;4849275;29;102788;-88
2021/12/02 01:43:44;;;;;;;13.43;9.60;;;;;;;12.90;70.97;100407.16;4849862;29;101536;-88
2021/12/02 01:46:14;;;;;;;13.65;10.30;;;;;;;12.91;71.15;100408.78;4848880;29;102034;-88
2021/12/02 01:48:41;;;;;;;;;;;;;;;12.92;71.14;100404.97;4851373;29;102074;-88
2021/12/02 01:51:13;;;;;;;13.85;9.98;;;;;;;12.91;71.04;100395.13;4848970;29;102778;-88
2021/12/02 01:53:40;;;;;;;14.15;9.73;;;;;;;12.90;71.09;100396.22;4850121;29;102101;-88
2021/12/02 01:56:10;;;;;;;14.00;9.85;;;;;;;12.91;71.02;100397.84;4849301;29;102013;-88
2021/12/02 01:58:42;;;;;;;13.63;9.20;;;;;;;12.90;71.00;100390.78;4851036;29;102036;-88
2021/12/02 02:01:16;;;;;;;14.80;9.65;;;;;;;12.91;71.02;100395.13;4848627;29;106817;-88
2021/12/02 02:03:44;;;;;;;12.88;10.18;;;;;;;12.90;71.14;100386.13;4846128;29;102014;-91
2021/12/02 02:06:14;;;;;;;14.05;10.15;;;;;;;12.91;71.04;100378.72;4847299;29;102357;-87
2021/12/02 02:08:45;;;;;;;12.50;9.63;;;;;;;12.90;71.06;100377.13;4850402;29;102047;-88
2021/12/02 02:11:12;;;;;;;13.45;9.43;;;;;;;12.90;71.08;100386.13;4846686;29;102704;-88
2021/12/02 02:13:42;;;;;;;12.48;9.63;;;;;;;12.91;71.26;100378.72;4849704;29;101723;-87
2021/12/02 02:16:08;;;;;;;11.77;9.35;;;;;;;12.91;71.02;100373.28;4849010;29;101584;-88
2021/12/02 02:18:37;;;;;;;13.60;9.90;;;;;;;12.90;71.20;100369.72;4833218;29;102100;-88
2021/12/02 02:21:09;;;;;;;13.52;9.30;;;;;;;12.90;71.21;100377.13;4848505;29;102726;-88
2021/12/02 02:23:42;;;;;;;13.18;9.00;;;;;;;12.90;71.06;100383.38;4847058;29;101722;-87
2021/12/02 02:26:09;;;;;;;12.25;9.20;;;;;;;12.90;70.99;100382.56;4847055;29;101565;-88
2021/12/02 02:28:36;;;;;;;12.45;9.10;;;;;;;12.91;71.05;100378.72;4849481;29;101985;-88
2021/12/02 02:31:03;;;;;;;11.70;8.43;;;;;;;12.90;70.96;100377.13;4848562;29;102793;-88
2021/12/02 02:33:37;;;;;;;13.25;9.50;;;;;;;12.89;71.19;100365.38;4832380;29;101982;-88
2021/12/02 02:36:08;;;;;;;12.63;8.90;;;;;;;12.89;71.14;100365.38;4829926;29;102080;-90
2021/12/02 02:38:36;;;;;;;13.07;9.07;;;;;;;12.90;70.92;100368.91;4818619;29;101998;-92
2021/12/02 02:41:04;;;;;;;11.35;8.43;;;;;;;12.89;70.83;100367.31;4836765;29;102774;-91
2021/12/02 02:43:32;;;;;;;10.05;8.32;;;;;;;12.90;71.25;100363.47;4829634;29;101939;-92
2021/12/02 02:45:59;;;;;;;10.53;8.37;;;;;;;12.89;71.17;100361.84;4836413;29;102294;-90
2021/12/02 02:48:26;;;;;;;13.15;9.27;;;;;;;12.89;71.03;100361.84;4863207;29;102218;-90
2021/12/02 02:50:52;;;;;;;11.77;8.68;;;;;;;12.89;71.14;100364.56;4827814;29;102765;-92
2021/12/02 02:53:22;;;;;;;12.75;8.80;;;;;;;12.89;71.09;100342.72;4837905;29;102184;-91
2021/12/02 03:01:37;;;;;;;11.25;8.68;;;;;;;12.89;71.00;100342.72;4847659;29;102731;-88
2021/12/02 03:04:36;;;;;;;12.80;8.90;;;;;;;12.88;70.95;100341.91;4835705;29;102158;-87
2021/12/02 03:11:55;;;;;;;10.63;8.50;;;;;;;12.88;71.01;100369.22;4808685;29;102425;-87
2021/12/02 03:14:30;;;;;;;10.88;7.85;;;;;;;12.88;70.88;100346.56;4846537;29;101496;-87
2021/12/02 03:16:57;;;;;;;11.70;8.60;;;;;;;12.88;71.23;100341.13;4846076;29;103399;-87
2021/12/02 03:19:27;;;;;;;10.98;8.02;;;;;;;12.88;71.20;100346.56;4847771;29;102044;-87
2021/12/02 03:21:55;;;;;;;10.93;8.25;;;;;;;12.88;71.11;100346.56;4845921;29;102758;-87
2021/12/02 03:24:24;;;;;;;10.18;7.95;;;;;;;12.87;70.88;100350.38;4848051;29;101536;-86
2021/12/02 03:26:50;;;;;;;8.02;7.03;;;;;;;12.88;71.00;100352.03;4830670;29;101785;-87
2021/12/02 03:29:17;;;;;;;9.43;7.38;;;;;;;12.88;71.13;100347.38;4849170;29;102096;-86
2021/12/02 03:31:43;;;;;;;9.77;7.32;;;;;;;12.88;71.12;100352.03;4847447;29;102807;-86
2021/12/02 03:34:12;;;;;;;10.73;7.47;;;;;;;12.88;70.96;100347.38;4847919;29;101995;-87
2021/12/02 03:36:39;;;;;;;9.80;8.00;;;;;;;12.87;70.92;100339.47;4847537;29;101998;-86
2021/12/02 03:39:09;;;;;;;10.73;7.32;;;;;;;12.88;71.10;100347.38;4848243;29;102055;-86
2021/12/02 03:41:38;;;;;;;11.70;8.18;;;;;;;12.87;71.09;100339.47;4846558;29;102765;-91
2021/12/02 03:44:04;;;;;;;;;;;;;;;12.87;71.02;100340.28;4836328;29;102106;-91
2021/12/02 03:46:31;;;;;;;10.07;7.30;;;;;;;12.87;71.06;100340.28;4821543;29;102137;-86
2021/12/02 03:48:59;;;;;;;10.98;6.97;;;;;;;12.88;71.10;100346.56;4848700;29;102057;-86
2021/12/02 03:51:26;;;;;;;10.82;7.80;;;;;;;12.87;71.11;100343.00;4830084;29;102414;-86
2021/12/02 03:53:53;;;;;;;12.25;8.02;;;;;;;12.87;70.80;100356.66;4849130;29;102013;-91
2021/12/02 03:56:20;;;;;;;10.00;7.72;;;;;;;12.88;71.11;100352.03;4845417;29;102147;-90
2021/12/02 03:58:49;;;;;;;10.10;7.78;;;;;;;12.87;71.06;100348.47;4856834;29;103322;-88
2021/12/02 04:01:17;;;;;;;9.80;7.70;;;;;;;12.87;70.97;100345.72;4866036;29;102720;-88
2021/12/02 04:03:44;;;;;;;10.45;7.70;;;;;;;12.88;71.07;100338.38;4866497;29;101534;-87
2021/12/02 04:06:11;;;;;;;10.55;7.60;;;;;;;12.88;71.10;100341.13;4865886;29;101748;-88
2021/12/02 04:08:43;;;;;;;9.98;7.25;;;;;;;12.87;71.02;100340.28;4867199;29;102054;-87
2021/12/02 04:17:02;;;;;;;10.45;7.55;;;;;;;12.87;70.96;100334.00;4865500;29;101953;-88
2021/12/02 04:19:28;;;;;;;9.60;7.53;;;;;;;12.88;71.04;100338.38;4864978;29;101646;-88
2021/12/02 04:21:58;;;;;;;10.07;8.23;;;;;;;12.87;70.82;100334.00;4865754;29;102863;-88
2021/12/02 04:24:26;;;;;;;9.52;7.60;;;;;;;12.87;70.99;100326.63;4866206;29;101868;-88
2021/12/02 04:26:52;;;;;;;10.18;7.90;;;;;;;12.87;71.00;100323.06;4865907;29;101877;-88
2021/12/02 04:29:20;;;;;;;9.00;7.13;;;;;;;12.87;71.22;100325.81;4867518;29;102080;-88
2021/12/02 04:31:47;;;;;;;9.27;7.07;;;;;;;12.87;70.64;100325.81;4868634;29;102505;-88
2021/12/02 04:34:14;;;;;;;9.70;6.95;;;;;;;12.87;70.94;100337.53;4869528;29;102105;-88
2021/12/02 04:36:42;;;;;;;10.07;7.85;;;;;;;12.86;71.03;100322.28;4868937;29;101727;-87
2021/12/02 04:39:09;;;;;;;9.88;6.72;;;;;;;12.88;70.92;100319.25;4853468;29;102098;-87
2021/12/02 04:41:35;;;;;;;8.57;6.45;;;;;;;12.87;70.96;100320.34;4867695;29;102718;-92
2021/12/02 04:44:02;;;;;;;10.23;7.40;;;;;;;12.87;71.13;100323.88;4850310;29;102033;-87
2021/12/02 04:46:30;;;;;;;8.68;7.40;;;;;;;12.86;70.99;100322.28;4850121;29;101962;-87
2021/12/02 04:48:57;;;;;;;10.82;7.07;;;;;;;12.86;70.91;100321.47;4851478;29;102085;-87
2021/12/02 04:51:23;;;;;;;8.77;6.82;;;;;;;12.86;71.02;100318.72;4849626;29;102537;-88
2021/12/02 04:53:49;;;;;;;8.82;6.65;;;;;;;12.86;71.16;100316.00;4834159;29;101617;-88
2021/12/02 04:56:16;;;;;;;10.00;7.25;;;;;;;12.85;71.08;100314.38;4849962;29;101553;-87
2021/12/02 04:58:43;;;;;;;8.75;6.72;;;;;;;12.86;71.04;100316.00;4851160;29;102168;-87
2021/12/02 05:01:09;;;;;;;8.70;6.60;;;;;;;12.87;70.91;100317.63;4849922;29;102770;-87
2021/12/02 05:03:38;;;;;;;10.55;7.55;;;;;;;12.87;70.96;100317.63;4833827;29;102070;-87
2021/12/02 05:06:04;;;;;;;8.65;6.72;;;;;;;12.87;70.73;100317.63;4849701;29;102126;-87
2021/12/02 05:08:31;;;;;;;8.30;6.65;;;;;;;12.87;71.01;100325.81;4851089;29;102062;-88
2021/12/02 05:10:57;;;;;;;9.90;7.00;;;;;;;12.86;71.12;100324.19;4832791;29;102737;-88
2021/12/02 05:13:24;;;;;;;10.88;7.55;;;;;;;12.87;71.26;100336.72;4849379;29;101699;-91
2021/12/02 05:15:50;;;;;;;9.27;7.20;;;;;;;12.85;70.95;100323.38;4832309;29;102080;-91
2021/12/02 05:18:16;;;;;;;10.98;7.78;;;;;;;12.86;71.04;100327.72;4840051;29;102217;-91
2021/12/02 05:20:46;;;;;;;9.60;7.13;;;;;;;12.87;70.98;100320.34;4841929;29;102223;-91
2021/12/02 05:23:12;;;;;;;9.15;6.97;;;;;;;12.86;70.91;100322.28;4850891;29;101846;-91
2021/12/02 05:25:43;;;;;;;8.77;6.57;;;;;;;12.86;71.17;100318.72;4850640;29;101887;-91
2021/12/02 05:28:18;;;;;;;8.68;6.90;;;;;;;12.86;71.17;100327.72;4834743;29;102068;-91
2021/12/02 05:30:45;;;;;;;8.40;6.30;;;;;;;12.86;71.05;100332.38;4832615;29;102885;-90
2021/12/02 05:33:13;;;;;;;8.55;6.68;;;;;;;12.87;71.09;100339.47;4857781;29;102064;-91
2021/12/02 05:35:40;;;;;;;10.25;6.93;;;;;;;12.88;71.13;100346.56;4841937;29;101901;-90
2021/12/02 05:38:08;;;;;;;8.07;6.70;;;;;;;12.87;71.05;100344.94;4851662;29;102727;-90
2021/12/02 05:40:35;;;;;;;8.55;6.10;;;;;;;12.86;70.88;100343.31;4836021;29;102721;-91
2021/12/02 05:43:02;;;;;;;8.90;6.72;;;;;;;12.87;71.03;100344.94;4868501;29;102039;-91
2021/12/02 05:45:29;;;;;;;7.15;6.05;;;;;;;12.87;71.02;100350.38;4868588;29;101937;-90
2021/12/02 05:47:55;;;;;;;8.50;6.35;;;;;;;12.85;70.97;100337.03;4866418;29;102172;-88
2021/12/02 05:50:22;;;;;;;6.90;5.68;;;;;;;12.87;71.06;100328.53;4834115;29;102754;-90
2021/12/02 05:52:48;;;;;;;8.57;5.70;;;;;;;12.87;70.99;100334.00;4849133;29;101994;-87
2021/12/02 05:55:16;;;;;;;8.40;6.10;;;;;;;12.87;70.73;100339.47;4849121;29;101631;-88
2021/12/02 05:57:42;;;;;;;7.93;5.90;;;;;;;12.86;71.06;100337.84;4850185;29;102061;-88
2021/12/02 06:00:10;;;;;;;6.70;5.90;;;;;;;12.87;71.39;100342.19;4848875;29;102466;-88
2021/12/02 06:02:37;;;;;;;8.18;6.20;;;;;;;12.87;71.21;100339.47;4849543;29;102016;-89
2021/12/02 06:05:05;;;;;;;9.35;5.75;;;;;;;12.87;70.72;100350.38;4848979;29;102141;-88
2021/12/02 06:07:32;;;;;;;6.78;5.68;;;;;;;12.87;71.13;100347.66;4849943;29;102014;-88
2021/12/02 06:09:58;;;;;;;6.90;5.78;;;;;;;12.86;70.87;100343.31;4847624;29;102913;-88
2021/12/02 06:12:26;;;;;;;7.40;5.95;;;;;;;12.87;71.04;100350.38;4849173;29;101671;-88
2021/12/02 06:14:53;;;;;;;7.10;5.57;;;;;;;12.87;71.01;100344.94;4848407;29;101750;-88
2021/12/02 06:17:19;;;;;;;6.47;5.00;;;;;;;12.88;71.17;100346.56;4832951;29;102101;-88
2021/12/02 06:19:45;;;;;;;7.18;5.82;;;;;;;12.87;71.16;100350.38;4831512;29;102794;-88
2021/12/02 06:22:14;;;;;;;6.10;5.40;;;;;;;12.87;71.09;100350.38;4849575;29;101630;-88
2021/12/02 06:24:45;;;;;;;5.60;5.00;;;;;;;12.88;71.00;100357.50;4831916;29;101796;-88
2021/12/02 06:27:12;;;;;;;6.47;5.30;;;;;;;12.87;70.75;100361.31;4829436;29;101891;-88
2021/12/02 06:29:41;;;;;;;6.80;5.30;;;;;;;12.87;70.97;100367.59;4848443;29;102641;-88
2021/12/02 06:32:08;;;;;;;7.60;5.32;;;;;;;12.86;71.06;100354.22;4849162;29;101768;-88
2021/12/02 06:34:35;;;;;;;6.50;5.10;;;;;;;12.87;71.17;100359.38;4848375;29;101789;-88
2021/12/02 06:37:02;;;;;;;6.15;5.50;;;;;;;12.88;71.05;100354.75;4849920;29;102050;-89
2021/12/02 06:39:29;;;;;;;5.88;4.90;;;;;;;12.87;71.21;100350.38;4848465;29;102795;-89
2021/12/02 06:41:56;;;;;;;6.80;4.95;;;;;;;12.88;71.01;100349.31;4831820;29;101710;-91
2021/12/02 06:44:23;;;;;;;6.18;4.85;;;;;;;12.87;70.79;100344.94;4845537;29;101963;-90
2021/12/02 06:46:51;;;;;;;7.45;5.47;;;;;;;12.87;71.06;100334.81;4855048;29;102094;-91
2021/12/02 06:49:17;;;;;;;6.07;4.97;;;;;;;12.86;71.13;100344.13;4841233;29;102784;-93
2021/12/02 06:51:44;;;;;;;7.43;4.85;;;;;;;12.87;71.17;100329.34;4846714;29;102098;-92
2021/12/02 06:54:11;;;;;;;5.97;4.60;;;;;;;12.87;70.98;100334.00;4842230;29;102296;-92
2021/12/02 06:56:37;;;;;;;5.72;4.70;;;;;;;12.87;70.85;100329.34;4832792;29;102230;-92
2021/12/02 06:59:04;;;;;;;6.18;4.80;;;;;;;12.87;70.96;100328.53;4834436;29;102817;-92
2021/12/02 07:01:30;;;;;;;6.47;4.88;;;;;;;12.87;70.98;100334.00;4856564;29;101997;-92
2021/12/02 07:03:58;;;;;;;5.10;4.60;;;;;;;12.87;70.93;100343.00;4842240;29;101949;-93
2021/12/02 07:06:24;;;;;;;6.65;4.97;;;;;;;12.87;71.12;100334.81;4836132;29;102044;-92
2021/12/02 07:08:51;;;;;;;5.85;4.68;;;;;;;12.87;71.00;100342.19;4847707;29;102674;-93
2021/12/02 07:11:17;;;;;;;6.10;4.50;;;;;;;12.87;71.12;100345.72;4843009;29;102256;-92
2021/12/02 07:13:47;;;;;;;6.32;4.93;;;;;;;12.88;70.99;100352.03;4832796;29;102245;-92
2021/12/02 07:16:13;;;;;;;7.30;4.45;;;;;;;12.88;71.04;100352.03;4839694;29;102210;-93
2021/12/02 07:18:44;;;;;;;5.50;4.35;;;;;;;12.87;71.12;100348.47;4834425;29;102481;-92
2021/12/02 07:21:12;;;;;;;5.07;4.35;;;;;;;12.87;71.18;100350.38;4856783;29;102025;-92
2021/12/02 07:23:38;;;;;;;6.30;4.23;;;;;;;12.87;70.99;100348.47;4842625;29;102204;-92
2021/12/02 07:26:05;;;;;;;5.45;4.53;;;;;;;12.88;71.09;100355.56;4854995;29;102207;-92
2021/12/02 07:28:35;;;;;;;5.57;4.25;;;;;;;12.88;71.01;100346.56;4852630;29;102462;-92
2021/12/02 07:31:04;;;;;;;5.45;4.28;;;;;;;12.87;70.94;100340.28;4840790;29;102144;-92
2021/12/02 07:33:36;;;;;;;6.20;3.78;;;;;;;12.88;71.10;100341.13;4838134;29;102110;-87
2021/12/02 07:36:03;;;;;;;6.70;4.70;;;;;;;12.88;71.03;100335.66;4860219;29;102141;-90
2021/12/02 07:38:32;;;;;;;5.72;4.38;;;;;;;12.88;70.97;100336.47;4858607;29;102056;-91
2021/12/02 07:41:03;;;;;;;5.72;4.28;;;;;;;12.88;71.13;100332.91;4836049;29;102066;-91
2021/12/02 07:43:31;;;;;;;7.43;4.25;;;;;;;12.88;71.07;100335.66;4813978;29;102184;-91
2021/12/02 07:45:58;;;;;;;5.37;4.20;;;;;;;12.88;71.03;100331.00;4829793;29;102042;-91
2021/12/02 07:48:25;;;;;;;5.82;4.35;;;;;;;12.88;70.77;100330.19;4849939;29;102726;-91
2021/12/02 07:50:53;;;;;;;6.40;4.30;;;;;;;12.88;70.97;100327.47;4835472;29;101895;-91
2021/12/02 07:53:20;;;;;;;5.78;4.45;;;;;;;12.88;70.92;100324.72;4843574;29;101813;-91
2021/12/02 07:55:51;;;;;;;5.00;4.22;;;;;;;12.88;70.80;100338.38;4831962;29;102116;-91
2021/12/02 07:58:21;;;;;;;6.20;4.10;;;;;;;12.88;70.99;100327.47;4846240;29;102498;-92
2021/12/02 08:00:48;;;;;;;5.25;4.00;;;;;;;12.88;71.13;100327.47;4822767;29;102076;-91
2021/12/02 08:03:16;;;;;;;6.20;4.45;;;;;;;12.88;71.10;100332.91;4833007;29;101921;-88
2021/12/02 08:05:43;;;;;;;4.82;3.88;;;;;;;12.88;70.91;100341.13;4851801;29;102044;-91
2021/12/02 08:08:11;;;;;;;6.32;4.20;;;;;;;12.89;71.02;100337.25;4840041;29;102736;-91
2021/12/02 08:10:38;;;;;;;6.45;3.80;;;;;;;12.88;70.92;100332.91;4826037;29;102078;-92
2021/12/02 08:13:06;;;;;;;4.70;3.47;;;;;;;12.89;71.02;100323.59;4852202;29;101824;-91
2021/12/02 08:15:33;;;;;;;5.45;3.72;;;;;;;12.88;70.84;100324.72;4859966;29;102052;-91
2021/12/02 08:18:00;;;;;;;7.93;3.88;;;;;;;12.89;70.95;100315.41;4840357;29;102333;-91
2021/12/02 08:20:29;;;;;;;3.88;3.47;;;;;;;12.88;70.63;100313.81;4865981;29;102063;-91
2021/12/02 08:22:55;;;;;;;4.80;3.60;;;;;;;12.87;71.09;100312.97;4847620;29;102036;-91
2021/12/02 08:25:26;;;;;;;4.38;3.05;;;;;;;12.88;71.25;100319.25;4847885;29;102191;-90
2021/12/02 08:27:53;;;;;;;4.45;3.38;;;;;;;12.87;71.00;100307.50;4852267;29;102772;-90
2021/12/02 08:30:24;;;;;;;4.50;3.80;;;;;;;12.89;70.85;100309.94;4854311;29;101880;-92
2021/12/02 08:32:50;;;;;;;5.13;3.78;;;;;;;12.89;70.66;100304.50;4832765;29;101803;-92
2021/12/02 08:35:18;;;;;;;6.00;3.63;;;;;;;12.88;70.48;100292.75;4845639;29;102043;-92
2021/12/02 08:37:46;;;;;;;5.38;3.78;;;;;;;12.88;70.77;100286.50;4819815;29;102736;-92
2021/12/02 08:40:15;;;;;;;3.80;3.20;;;;;;;12.88;70.75;100270.91;4849264;29;102013;-92
2021/12/02 08:42:42;;;;;;;3.95;3.53;;;;;;;12.88;70.76;100272.84;4826915;29;101910;-92
2021/12/02 08:45:09;;;;;;;4.65;3.40;;;;;;;12.89;70.52;100277.19;4849064;29;101979;-92
2021/12/02 08:47:43;;;;;;;4.75;3.33;;;;;;;12.88;70.78;100275.56;4863616;29;102694;-92
2021/12/02 08:50:11;;;;;;;3.45;3.15;;;;;;;12.88;70.51;100270.09;4859326;29;101995;-92
2021/12/02 08:52:37;;;;;;;3.95;3.28;;;;;;;12.88;70.61;100265.44;4839171;29;102031;-92
2021/12/02 08:55:05;;;;;;;4.15;3.22;;;;;;;12.88;70.66;100267.38;4835441;29;102136;-92
2021/12/02 08:57:32;;;;;;;3.80;2.90;;;;;;;12.88;70.38;100259.19;4865412;29;102791;-87
2021/12/02 08:59:58;;;;;;;4.57;3.40;;;;;;;12.89;70.41;100260.78;4849346;29;101675;-87
2021/12/02 09:02:25;;;;;;;4.53;3.40;;;;;;;12.89;70.42;100252.59;4865416;29;101737;-87
2021/12/02 09:04:53;;;;;;;4.07;3.28;;;;;;;12.89;70.39;100261.59;4849773;29;102164;-87
2021/12/02 09:07:19;;;;;;;5.15;3.50;;;;;;;12.89;70.52;100255.34;4865153;29;102672;-88
2021/12/02 09:09:46;;;;;;;3.83;3.05;;;;;;;12.89;70.39;100249.88;4865940;29;101697;-87
2021/12/02 09:12:13;;;;;;;4.78;3.03;;;;;;;12.91;70.53;100253.09;4865732;29;102006;-88
2021/12/02 09:14:40;;;;;;;4.07;2.90;;;;;;;12.90;70.38;100248.75;4848207;29;101729;-88
2021/12/02 09:17:06;;;;;;;4.07;3.15;;;;;;;12.91;70.35;100236.72;4867662;29;102734;-88
2021/12/02 09:19:33;;;;;;;3.60;3.08;;;;;;;12.91;70.02;100253.09;4869233;29;101559;-88
2021/12/02 09:22:02;;;;;;;3.10;2.58;;;;;;;12.90;70.19;100246.03;4868498;29;101688;-87
2021/12/02 09:24:29;;;;;;;3.95;2.95;;;;;;;12.92;70.35;100230.16;4853006;29;102188;-88
2021/12/02 09:26:58;;;;;;;3.83;3.03;;;;;;;12.91;70.19;100229.34;4849120;29;102752;-88
2021/12/02 09:29:25;;;;;;;4.20;2.83;;;;;;;12.91;70.20;100221.16;4832880;29;102089;-87
2021/12/02 09:31:53;;;;;;;2.83;2.55;;;;;;;12.92;70.17;100227.44;4849692;29;102148;-87
2021/12/02 09:34:20;;;;;;;4.30;3.03;;;;;;;12.92;70.30;100230.16;4833813;29;102144;-88
2021/12/02 09:36:47;;;;;;;5.20;2.80;;;;;;;12.92;70.33;100228.22;4849563;29;102722;-88
2021/12/02 09:39:15;;;;;;;3.83;2.67;;;;;;;12.92;70.34;100227.44;4849852;29;101623;-88
2021/12/02 09:41:44;;;;;;;3.57;2.80;;;;;;;12.93;69.92;100218.13;4849344;29;101639;-88
2021/12/02 09:44:11;;;;;;;3.22;2.63;;;;;;;12.93;70.13;100218.13;4850500;29;102070;-87
2021/12/02 09:46:40;;;;;;;3.80;2.72;;;;;;;12.93;70.40;100224.38;4849511;29;102776;-88
2021/12/02 09:49:07;;;;;;;4.28;2.50;;;;;;;12.93;70.26;100218.94;4849837;29;102011;-88
2021/12/02 09:54:28;;;;;;;3.38;2.20;;;;;;;12.94;70.22;100217.00;4850403;29;101681;-88
2021/12/02 09:56:58;;;;;;;2.80;2.55;;;;;;;12.94;70.16;100214.28;4832501;29;102431;-88
2021/12/02 10:01:55;;;;;;;2.88;2.60;;;;;;;12.95;70.21;100215.91;4849009;29;101776;-88
2021/12/02 10:04:23;;;;;;;4.00;3.05;;;;;;;12.94;70.06;100230.66;4850388;29;101570;-88
2021/12/02 10:07:24;;;;;;;3.05;2.67;;;;;;;12.95;70.09;100215.91;4832309;29;102708;-88
2021/12/02 10:10:03;;;;;;;3.65;2.60;;;;;;;12.95;70.03;100221.38;4848920;29;102051;-88
2021/12/02 10:12:33;;;;;;;3.45;2.72;;;;;;;12.96;70.24;100217.53;4846644;29;101607;-88
2021/12/02 10:15:02;;;;;;;3.13;2.42;;;;;;;12.96;70.07;100212.06;4848612;29;101618;-88
2021/12/02 10:17:47;;;;;;;3.88;2.30;;;;;;;12.97;70.33;100219.13;4848600;29;102734;-88
2021/12/02 10:26:09;;;;;;;2.95;2.50;;;;;;;12.96;70.36;100203.88;4833733;29;102102;-87
2021/12/02 10:28:41;;;;;;;3.10;2.42;;;;;;;12.97;70.29;100219.94;4831377;29;102752;-89
2021/12/02 10:31:10;;;;;;;3.33;2.53;;;;;;;12.97;70.32;100214.47;4856764;29;102033;-93
2021/12/02 10:33:38;;;;;;;;;;;;;;;12.97;70.43;100214.47;4860178;29;101748;-89
2021/12/02 10:36:07;;;;;;;4.05;2.40;;;;;;;12.96;70.31;100221.06;4868737;29;102045;-89
2021/12/02 10:38:36;;;;;;;4.03;3.00;;;;;;;12.97;70.29;100225.41;4867164;29;102816;-89
2021/12/02 10:41:08;;;;;;;3.15;2.33;;;;;;;12.97;70.21;100214.47;4865416;29;101657;-89
2021/12/02 10:43:34;;;;;;;3.33;2.70;;;;;;;12.98;70.25;100212.56;4848322;29;101995;-93
2021/12/02 10:46:17;;;;;;;3.45;2.67;;;;;;;12.98;70.27;100204.34;4814666;29;102147;-92
2021/12/02 10:48:46;;;;;;;3.72;2.92;;;;;;;12.98;70.31;100198.91;4826554;29;103266;-93
2021/12/02 10:51:34;;;;;;;4.22;2.90;;;;;;;12.98;70.43;100198.91;4804918;29;102182;-93
2021/12/02 10:54:04;;;;;;;3.85;2.88;;;;;;;12.99;70.33;100195.06;4837188;29;101817;-92
2021/12/02 10:56:34;;;;;;;4.78;3.08;;;;;;;12.99;70.30;100179.50;4815783;29;102266;-92
2021/12/02 10:59:41;;;;;;;3.10;2.75;;;;;;;12.98;70.37;100180.63;4824234;29;102716;-92
2021/12/02 11:02:17;;;;;;;4.07;2.70;;;;;;;12.98;70.38;100177.03;4812174;29;102199;-89
2021/12/02 11:04:45;;;;;;;5.45;2.63;;;;;;;12.99;70.30;100178.69;4829496;29;102061;-89
2021/12/02 11:07:19;;;;;;;3.70;3.00;;;;;;;12.99;70.32;100181.41;4813973;29;102054;-89
2021/12/02 11:09:48;;;;;;;3.65;2.75;;;;;;;12.97;70.55;100181.69;4827604;29;106416;-89
2021/12/02 11:12:20;;;;;;;3.90;2.90;;;;;;;12.99;70.45;100181.41;4813373;29;101578;-89
2021/12/02 11:15:06;;;;;;;3.58;2.83;;;;;;;12.98;70.31;100171.59;4826763;29;101617;-89
2021/12/02 11:17:37;;;;;;;4.80;3.13;;;;;;;12.98;70.31;100182.50;4829172;29;101697;-90
2021/12/02 11:20:07;;;;;;;3.60;2.75;;;;;;;12.98;70.23;100177.03;4826253;29;102493;-89
2021/12/02 11:22:34;;;;;;;4.53;3.03;;;;;;;12.98;70.52;100177.88;4813140;29;101593;-89
2021/12/02 11:25:01;;;;;;;4.18;3.38;;;;;;;12.98;70.36;100177.03;4829178;29;101571;-89
2021/12/02 11:27:34;;;;;;;3.50;2.90;;;;;;;12.98;70.61;100177.03;4830699;29;102078;-89
2021/12/02 11:30:05;;;;;;;4.50;3.05;;;;;;;12.98;70.37;100179.78;4829048;29;104220;-89
2021/12/02 11:32:42;;;;;;;3.47;2.92;;;;;;;12.99;70.44;100173.22;4828515;29;101532;-89
2021/12/02 11:35:16;;;;;;;4.20;2.95;;;;;;;12.99;70.60;100165.03;4811640;29;102073;-89
2021/12/02 11:37:47;;;;;;;4.63;3.45;;;;;;;12.98;70.45;100172.41;4829565;29;101896;-89
2021/12/02 11:40:18;;;;;;;4.18;3.03;;;;;;;12.98;70.56;100171.59;4810658;29;102785;-88
2021/12/02 11:42:49;;;;;;;4.20;2.90;;;;;;;12.99;70.51;100179.50;4818573;29;102065;-88
2021/12/02 11:45:17;;;;;;;4.55;2.95;;;;;;;12.97;70.46;100169.97;4847070;29;101724;-88
2021/12/02 11:47:44;;;;;;;3.77;2.87;;;;;;;12.99;70.36;100173.22;4847652;29;102103;-89
2021/12/02 11:50:14;;;;;;;3.53;2.63;;;;;;;12.98;70.33;100179.78;4847434;29;102928;-89
2021/12/02 11:52:42;;;;;;;3.95;3.10;;;;;;;12.98;70.73;100183.34;4846530;29;102206;-88